sensor_id;sensor_type;location;lat;lon;timestamp;pressure;altitude;pressure_sealevel;temperature;humidity
66396;BME280;53207;51.378;-1.342;2023-04-21T00:00:00;100354.98;;;21.46;32.65
66396;BME280;53207;51.378;-1.342;2023-04-21T00:02:28;100357.24;;;21.40;32.71
66396;BME280;53207;51.378;-1.342;2023-04-21T00:04:55;100362.80;;;21.39;32.71
66396;BME280;53207;51.378;-1.342;2023-04-21T00:07:22;100361.70;;;21.22;32.87
66396;BME280;53207;51.378;-1.342;2023-04-21T00:09:50;100362.62;;;21.34;32.74
66396;BME280;53207;51.378;-1.342;2023-04-21T00:12:17;100361.52;;;21.31;32.73
66396;BME280;53207;51.378;-1.342;2023-04-21T00:14:44;100358.64;;;21.44;32.80
66396;BME280;53207;51.378;-1.342;2023-04-21T00:17:12;100362.79;;;21.17;32.86
66396;BME280;53207;51.378;-1.342;2023-04-21T00:19:39;100361.42;;;21.24;32.74
66396;BME280;53207;51.378;-1.342;2023-04-21T00:22:06;100356.67;;;21.51;32.96
66396;BME280;53207;51.378;-1.342;2023-04-21T00:24:33;100349.31;;;21.18;32.78
66396;BME280;53207;51.378;-1.342;2023-04-21T00:27:01;100352.99;;;21.17;32.73
66396;BME280;53207;51.378;-1.342;2023-04-21T00:29:28;100348.42;;;21.19;32.70
66396;BME280;53207;51.378;-1.342;2023-04-21T00:31:55;100344.65;;;21.02;32.88
66396;BME280;53207;51.378;-1.342;2023-04-21T00:34:23;100345.58;;;21.55;32.78
66396;BME280;53207;51.378;-1.342;2023-04-21T00:36:50;100342.10;;;21.10;32.74
66396;BME280;53207;51.378;-1.342;2023-04-21T00:39:17;100343.50;;;21.09;32.76
66396;BME280;53207;51.378;-1.342;2023-04-21T00:41:45;100342.42;;;21.14;32.65
66396;BME280;53207;51.378;-1.342;2023-04-21T00:44:12;100342.02;;;21.60;32.61
66396;BME280;53207;51.378;-1.342;2023-04-21T00:46:39;100337.66;;;21.08;32.69
66396;BME280;53207;51.378;-1.342;2023-04-21T00:49:07;100335.21;;;21.03;32.75
66396;BME280;53207;51.378;-1.342;2023-04-21T00:51:35;100334.93;;;21.31;32.63
66396;BME280;53207;51.378;-1.342;2023-04-21T00:54:04;100332.75;;;21.26;32.69
66396;BME280;53207;51.378;-1.342;2023-04-21T00:56:33;100327.73;;;21.21;32.72
66396;BME280;53207;51.378;-1.342;2023-04-21T00:59:01;100323.68;;;21.02;32.66
66396;BME280;53207;51.378;-1.342;2023-04-21T01:01:29;100317.85;;;21.50;32.60
66396;BME280;53207;51.378;-1.342;2023-04-21T01:03:58;100321.43;;;21.28;32.57
66396;BME280;53207;51.378;-1.342;2023-04-21T01:06:27;100321.11;;;21.29;32.54
66396;BME280;53207;51.378;-1.342;2023-04-21T01:08:54;100317.68;;;21.11;32.74
66396;BME280;53207;51.378;-1.342;2023-04-21T01:11:22;100320.80;;;21.24;32.54
66396;BME280;53207;51.378;-1.342;2023-04-21T01:13:51;100315.37;;;21.34;32.68
66396;BME280;53207;51.378;-1.342;2023-04-21T01:16:19;100313.38;;;21.39;32.61
66396;BME280;53207;51.378;-1.342;2023-04-21T01:18:47;100312.09;;;20.89;32.64
66396;BME280;53207;51.378;-1.342;2023-04-21T01:21:14;100309.64;;;21.15;32.58
66396;BME280;53207;51.378;-1.342;2023-04-21T01:23:42;100307.96;;;20.87;32.90
66396;BME280;53207;51.378;-1.342;2023-04-21T01:26:09;100305.41;;;20.75;32.76
66396;BME280;53207;51.378;-1.342;2023-04-21T01:28:37;100300.99;;;20.95;32.75
66396;BME280;53207;51.378;-1.342;2023-04-21T01:31:05;100296.64;;;20.93;32.78
66396;BME280;53207;51.378;-1.342;2023-04-21T01:33:32;100291.54;;;21.01;32.65
66396;BME280;53207;51.378;-1.342;2023-04-21T01:35:59;100289.04;;;21.30;32.58
66396;BME280;53207;51.378;-1.342;2023-04-21T01:38:27;100285.07;;;21.00;32.64
66396;BME280;53207;51.378;-1.342;2023-04-21T01:40:54;100281.72;;;21.28;32.55
66396;BME280;53207;51.378;-1.342;2023-04-21T01:43:23;100280.15;;;21.20;32.62
66396;BME280;53207;51.378;-1.342;2023-04-21T01:45:51;100273.22;;;21.15;32.64
66396;BME280;53207;51.378;-1.342;2023-04-21T01:48:19;100267.68;;;21.02;32.54
66396;BME280;53207;51.378;-1.342;2023-04-21T01:50:46;100267.99;;;20.94;32.61
66396;BME280;53207;51.378;-1.342;2023-04-21T01:53:14;100264.72;;;20.71;32.60
66396;BME280;53207;51.378;-1.342;2023-04-21T01:55:40;100260.79;;;20.91;32.61
66396;BME280;53207;51.378;-1.342;2023-04-21T01:58:08;100257.85;;;20.94;32.83
66396;BME280;53207;51.378;-1.342;2023-04-21T02:00:35;100255.75;;;20.84;32.65
66396;BME280;53207;51.378;-1.342;2023-04-21T02:03:02;100253.63;;;20.92;32.80
66396;BME280;53207;51.378;-1.342;2023-04-21T02:05:30;100250.21;;;20.73;32.72
66396;BME280;53207;51.378;-1.342;2023-04-21T02:07:57;100246.10;;;20.97;32.69
66396;BME280;53207;51.378;-1.342;2023-04-21T02:10:24;100245.71;;;21.05;32.59
66396;BME280;53207;51.378;-1.342;2023-04-21T02:12:52;100245.40;;;21.04;32.58
66396;BME280;53207;51.378;-1.342;2023-04-21T02:15:19;100246.19;;;20.57;32.60
66396;BME280;53207;51.378;-1.342;2023-04-21T02:17:46;100246.02;;;20.76;32.63
66396;BME280;53207;51.378;-1.342;2023-04-21T02:20:14;100242.07;;;20.99;32.59
66396;BME280;53207;51.378;-1.342;2023-04-21T02:22:41;100242.56;;;20.95;32.62
66396;BME280;53207;51.378;-1.342;2023-04-21T02:25:08;100240.02;;;20.63;32.72
66396;BME280;53207;51.378;-1.342;2023-04-21T02:27:35;100237.23;;;20.71;32.61
66396;BME280;53207;51.378;-1.342;2023-04-21T02:30:04;100232.84;;;20.83;32.72
66396;BME280;53207;51.378;-1.342;2023-04-21T02:32:31;100230.76;;;20.80;32.72
66396;BME280;53207;51.378;-1.342;2023-04-21T02:34:58;100224.99;;;20.88;32.59
66396;BME280;53207;51.378;-1.342;2023-04-21T02:37:26;100222.09;;;20.84;32.65
66396;BME280;53207;51.378;-1.342;2023-04-21T02:39:53;100220.94;;;20.90;32.56
66396;BME280;53207;51.378;-1.342;2023-04-21T02:42:20;100218.73;;;20.59;32.63
66396;BME280;53207;51.378;-1.342;2023-04-21T02:44:48;100218.17;;;20.82;32.61
66396;BME280;53207;51.378;-1.342;2023-04-21T02:47:15;100219.92;;;20.55;32.66
66396;BME280;53207;51.378;-1.342;2023-04-21T02:49:42;100213.14;;;20.75;32.65
66396;BME280;53207;51.378;-1.342;2023-04-21T02:52:10;100209.41;;;20.83;32.54
66396;BME280;53207;51.378;-1.342;2023-04-21T02:54:37;100210.81;;;20.71;32.64
66396;BME280;53207;51.378;-1.342;2023-04-21T02:57:04;100210.34;;;20.54;32.57
66396;BME280;53207;51.378;-1.342;2023-04-21T02:59:32;100210.37;;;20.68;32.65
66396;BME280;53207;51.378;-1.342;2023-04-21T03:01:59;100209.20;;;20.70;32.64
66396;BME280;53207;51.378;-1.342;2023-04-21T03:04:26;100203.77;;;20.64;32.68
66396;BME280;53207;51.378;-1.342;2023-04-21T03:06:53;100199.23;;;20.56;32.74
66396;BME280;53207;51.378;-1.342;2023-04-21T03:09:21;100194.16;;;20.73;32.53
66396;BME280;53207;51.378;-1.342;2023-04-21T03:11:48;100192.66;;;20.68;32.58
66396;BME280;53207;51.378;-1.342;2023-04-21T03:14:15;100191.64;;;20.68;32.54
66396;BME280;53207;51.378;-1.342;2023-04-21T03:16:43;100192.40;;;20.63;32.60
66396;BME280;53207;51.378;-1.342;2023-04-21T03:19:10;100193.49;;;20.93;32.54
66396;BME280;53207;51.378;-1.342;2023-04-21T03:21:37;100193.69;;;20.52;32.69
66396;BME280;53207;51.378;-1.342;2023-04-21T03:24:05;100195.13;;;20.38;32.83
66396;BME280;53207;51.378;-1.342;2023-04-21T03:26:33;100194.73;;;20.45;32.71
66396;BME280;53207;51.378;-1.342;2023-04-21T03:29:00;100195.04;;;20.56;32.59
66396;BME280;53207;51.378;-1.342;2023-04-21T03:31:28;100191.36;;;20.54;32.59
66396;BME280;53207;51.378;-1.342;2023-04-21T03:33:55;100187.46;;;20.79;32.60
66396;BME280;53207;51.378;-1.342;2023-04-21T03:36:22;100184.12;;;20.43;32.68
66396;BME280;53207;51.378;-1.342;2023-04-21T03:38:49;100181.51;;;20.50;32.58
66396;BME280;53207;51.378;-1.342;2023-04-21T03:41:17;100181.62;;;20.77;32.58
66396;BME280;53207;51.378;-1.342;2023-04-21T03:43:44;100180.83;;;20.29;32.79
66396;BME280;53207;51.378;-1.342;2023-04-21T03:46:19;100177.56;;;20.70;32.61
66396;BME280;53207;51.378;-1.342;2023-04-21T03:48:47;100171.28;;;20.72;32.60
66396;BME280;53207;51.378;-1.342;2023-04-21T03:51:14;100169.73;;;20.49;32.51
66396;BME280;53207;51.378;-1.342;2023-04-21T03:53:41;100163.75;;;20.43;32.55
66396;BME280;53207;51.378;-1.342;2023-04-21T03:56:09;100158.49;;;20.32;32.67
66396;BME280;53207;51.378;-1.342;2023-04-21T03:58:36;100151.38;;;20.61;32.62
66396;BME280;53207;51.378;-1.342;2023-04-21T04:01:04;100148.54;;;20.58;32.64
66396;BME280;53207;51.378;-1.342;2023-04-21T04:03:32;100145.97;;;20.59;32.63
66396;BME280;53207;51.378;-1.342;2023-04-21T04:05:59;100140.43;;;20.19;32.74
66396;BME280;53207;51.378;-1.342;2023-04-21T04:08:26;100139.38;;;20.24;32.67
66396;BME280;53207;51.378;-1.342;2023-04-21T04:10:53;100137.61;;;20.29;32.62
66396;BME280;53207;51.378;-1.342;2023-04-21T04:13:21;100131.20;;;20.16;32.72
66396;BME280;53207;51.378;-1.342;2023-04-21T04:15:48;100127.31;;;20.24;32.62
66396;BME280;53207;51.378;-1.342;2023-04-21T04:18:15;100124.27;;;20.47;32.66
66396;BME280;53207;51.378;-1.342;2023-04-21T04:20:43;100121.78;;;20.18;32.67
66396;BME280;53207;51.378;-1.342;2023-04-21T04:23:10;100123.60;;;20.25;32.58
66396;BME280;53207;51.378;-1.342;2023-04-21T04:25:37;100120.98;;;20.19;32.63
66396;BME280;53207;51.378;-1.342;2023-04-21T04:28:05;100120.90;;;20.46;32.62
66396;BME280;53207;51.378;-1.342;2023-04-21T04:30:32;100116.90;;;20.15;32.62
66396;BME280;53207;51.378;-1.342;2023-04-21T04:32:59;100111.90;;;20.17;32.59
66396;BME280;53207;51.378;-1.342;2023-04-21T04:35:27;100111.75;;;20.44;32.57
66396;BME280;53207;51.378;-1.342;2023-04-21T04:37:54;100107.19;;;20.36;32.65
66396;BME280;53207;51.378;-1.342;2023-04-21T04:40:22;100105.69;;;20.09;32.63
66396;BME280;53207;51.378;-1.342;2023-04-21T04:42:49;100100.78;;;20.24;32.75
66396;BME280;53207;51.378;-1.342;2023-04-21T04:45:16;100094.54;;;20.08;32.60
66396;BME280;53207;51.378;-1.342;2023-04-21T04:47:43;100088.51;;;19.95;32.73
66396;BME280;53207;51.378;-1.342;2023-04-21T04:50:10;100084.71;;;20.00;32.68
66396;BME280;53207;51.378;-1.342;2023-04-21T04:52:38;100083.45;;;20.34;32.57
66396;BME280;53207;51.378;-1.342;2023-04-21T04:55:06;100079.39;;;20.28;32.61
66396;BME280;53207;51.378;-1.342;2023-04-21T04:57:33;100080.54;;;19.99;32.63
66396;BME280;53207;51.378;-1.342;2023-04-21T05:00:01;100081.67;;;20.46;32.63
66396;BME280;53207;51.378;-1.342;2023-04-21T05:02:28;100080.37;;;20.20;32.64
66396;BME280;53207;51.378;-1.342;2023-04-21T05:04:55;100080.02;;;19.92;32.66
66396;BME280;53207;51.378;-1.342;2023-04-21T05:07:23;100086.88;;;20.14;32.69
66396;BME280;53207;51.378;-1.342;2023-04-21T05:09:50;100083.71;;;19.88;32.66
66396;BME280;53207;51.378;-1.342;2023-04-21T05:12:17;100078.97;;;20.33;32.70
66396;BME280;53207;51.378;-1.342;2023-04-21T05:14:45;100074.76;;;20.09;32.70
66396;BME280;53207;51.378;-1.342;2023-04-21T05:17:12;100077.01;;;19.77;32.73
66396;BME280;53207;51.378;-1.342;2023-04-21T05:19:39;100077.45;;;19.97;32.81
66396;BME280;53207;51.378;-1.342;2023-04-21T05:22:07;100079.83;;;20.07;32.69
66396;BME280;53207;51.378;-1.342;2023-04-21T05:24:34;100078.01;;;20.29;32.67
66396;BME280;53207;51.378;-1.342;2023-04-21T05:27:01;100082.41;;;20.18;32.55
66396;BME280;53207;51.378;-1.342;2023-04-21T05:29:29;100083.01;;;20.18;32.58
66396;BME280;53207;51.378;-1.342;2023-04-21T05:31:56;100084.00;;;20.46;32.54
66396;BME280;53207;51.378;-1.342;2023-04-21T05:34:23;100078.56;;;20.06;32.47
66396;BME280;53207;51.378;-1.342;2023-04-21T05:36:51;100069.79;;;20.61;32.42
66396;BME280;53207;51.378;-1.342;2023-04-21T05:39:18;100065.63;;;20.66;32.41
66396;BME280;53207;51.378;-1.342;2023-04-21T05:41:45;100066.84;;;20.27;32.33
66396;BME280;53207;51.378;-1.342;2023-04-21T05:44:14;100067.79;;;20.65;32.29
66396;BME280;53207;51.378;-1.342;2023-04-21T05:46:42;100065.76;;;20.77;32.19
66396;BME280;53207;51.378;-1.342;2023-04-21T05:49:09;100065.56;;;20.60;32.12
66396;BME280;53207;51.378;-1.342;2023-04-21T05:51:36;100061.70;;;20.94;32.04
66396;BME280;53207;51.378;-1.342;2023-04-21T05:54:04;100058.88;;;20.98;32.04
66396;BME280;53207;51.378;-1.342;2023-04-21T05:56:31;100059.89;;;20.82;31.92
66396;BME280;53207;51.378;-1.342;2023-04-21T05:58:58;100054.18;;;20.84;31.90
66396;BME280;53207;51.378;-1.342;2023-04-21T06:01:25;100046.17;;;21.13;31.90
66396;BME280;53207;51.378;-1.342;2023-04-21T06:03:53;100043.69;;;20.91;31.88
66396;BME280;53207;51.378;-1.342;2023-04-21T06:06:20;100040.89;;;20.90;31.87
66396;BME280;53207;51.378;-1.342;2023-04-21T06:08:47;100040.94;;;20.92;31.90
66396;BME280;53207;51.378;-1.342;2023-04-21T06:11:15;100038.70;;;20.90;31.90
66396;BME280;53207;51.378;-1.342;2023-04-21T06:13:42;100032.22;;;20.92;31.94
66396;BME280;53207;51.378;-1.342;2023-04-21T06:16:09;100028.42;;;20.93;31.88
66396;BME280;53207;51.378;-1.342;2023-04-21T06:18:37;100028.78;;;20.93;31.92
66396;BME280;53207;51.378;-1.342;2023-04-21T06:21:04;100027.85;;;20.89;31.98
66396;BME280;53207;51.378;-1.342;2023-04-21T06:23:31;100019.59;;;20.88;31.99
66396;BME280;53207;51.378;-1.342;2023-04-21T06:25:59;100017.99;;;20.90;31.93
66396;BME280;53207;51.378;-1.342;2023-04-21T06:28:27;100014.36;;;20.87;31.96
66396;BME280;53207;51.378;-1.342;2023-04-21T06:30:54;100013.32;;;20.63;31.99
66396;BME280;53207;51.378;-1.342;2023-04-21T06:33:22;100009.57;;;20.85;31.97
66396;BME280;53207;51.378;-1.342;2023-04-21T06:35:49;100008.13;;;20.87;31.95
66396;BME280;53207;51.378;-1.342;2023-04-21T06:38:16;100003.98;;;20.80;32.00
66396;BME280;53207;51.378;-1.342;2023-04-21T06:40:44;100001.12;;;20.61;31.93
66396;BME280;53207;51.378;-1.342;2023-04-21T06:43:11;100002.23;;;20.71;32.07
66396;BME280;53207;51.378;-1.342;2023-04-21T06:45:38;99996.06;;;20.69;32.05
66396;BME280;53207;51.378;-1.342;2023-04-21T06:48:06;99992.92;;;20.58;32.16
66396;BME280;53207;51.378;-1.342;2023-04-21T06:50:33;99989.01;;;20.99;31.99
66396;BME280;53207;51.378;-1.342;2023-04-21T06:53:00;99987.44;;;20.68;32.02
66396;BME280;53207;51.378;-1.342;2023-04-21T06:55:28;99984.21;;;20.52;32.16
66396;BME280;53207;51.378;-1.342;2023-04-21T06:57:55;99981.44;;;20.58;32.09
66396;BME280;53207;51.378;-1.342;2023-04-21T07:00:22;99979.65;;;20.74;32.22
66396;BME280;53207;51.378;-1.342;2023-04-21T07:02:49;99974.67;;;20.31;32.39
66396;BME280;53207;51.378;-1.342;2023-04-21T07:05:17;99973.54;;;20.36;32.34
66396;BME280;53207;51.378;-1.342;2023-04-21T07:07:44;99969.86;;;20.48;32.22
66396;BME280;53207;51.378;-1.342;2023-04-21T07:10:11;99964.14;;;20.38;32.32
66396;BME280;53207;51.378;-1.342;2023-04-21T07:12:39;99958.94;;;20.34;32.38
66396;BME280;53207;51.378;-1.342;2023-04-21T07:15:08;99957.20;;;20.32;32.38
66396;BME280;53207;51.378;-1.342;2023-04-21T07:17:35;99952.25;;;20.32;32.38
66396;BME280;53207;51.378;-1.342;2023-04-21T07:20:03;99941.94;;;20.27;32.35
66396;BME280;53207;51.378;-1.342;2023-04-21T07:22:31;99936.54;;;20.42;32.17
66396;BME280;53207;51.378;-1.342;2023-04-21T07:24:58;99932.75;;;20.44;32.07
66396;BME280;53207;51.378;-1.342;2023-04-21T07:27:25;99932.50;;;20.35;32.11
66396;BME280;53207;51.378;-1.342;2023-04-21T07:29:53;99926.96;;;20.21;32.17
66396;BME280;53207;51.378;-1.342;2023-04-21T07:32:20;99926.03;;;20.26;32.08
66396;BME280;53207;51.378;-1.342;2023-04-21T07:34:47;99927.11;;;20.08;32.22
66396;BME280;53207;51.378;-1.342;2023-04-21T07:37:15;99922.30;;;20.31;31.95
66396;BME280;53207;51.378;-1.342;2023-04-21T07:39:42;99920.33;;;20.54;31.98
66396;BME280;53207;51.378;-1.342;2023-04-21T07:42:09;99919.89;;;20.13;32.16
66396;BME280;53207;51.378;-1.342;2023-04-21T07:44:36;99915.09;;;20.50;32.03
66396;BME280;53207;51.378;-1.342;2023-04-21T07:47:04;99913.99;;;20.16;32.14
66396;BME280;53207;51.378;-1.342;2023-04-21T07:49:31;99910.57;;;20.09;32.18
66396;BME280;53207;51.378;-1.342;2023-04-21T07:51:58;99910.89;;;20.51;32.00
66396;BME280;53207;51.378;-1.342;2023-04-21T07:54:26;99911.10;;;20.09;32.17
66396;BME280;53207;51.378;-1.342;2023-04-21T07:56:53;99910.09;;;20.16;32.06
66396;BME280;53207;51.378;-1.342;2023-04-21T07:59:20;99907.91;;;20.41;32.41
66396;BME280;53207;51.378;-1.342;2023-04-21T08:01:48;99903.17;;;19.94;32.37
66396;BME280;53207;51.378;-1.342;2023-04-21T08:04:15;99897.41;;;20.16;32.16
66396;BME280;53207;51.378;-1.342;2023-04-21T08:06:42;99895.85;;;20.28;32.33
66396;BME280;53207;51.378;-1.342;2023-04-21T08:09:10;99895.59;;;20.00;32.39
66396;BME280;53207;51.378;-1.342;2023-04-21T08:11:37;99894.70;;;20.29;32.34
66396;BME280;53207;51.378;-1.342;2023-04-21T08:14:04;99893.05;;;20.38;32.21
66396;BME280;53207;51.378;-1.342;2023-04-21T08:16:32;99894.75;;;20.30;32.32
66396;BME280;53207;51.378;-1.342;2023-04-21T08:18:59;99891.28;;;20.30;32.31
66396;BME280;53207;51.378;-1.342;2023-04-21T08:21:26;99889.32;;;20.28;32.30
66396;BME280;53207;51.378;-1.342;2023-04-21T08:23:54;99892.16;;;20.19;32.44
66396;BME280;53207;51.378;-1.342;2023-04-21T08:26:21;99891.88;;;20.23;32.39
66396;BME280;53207;51.378;-1.342;2023-04-21T08:28:48;99888.81;;;20.21;32.42
66396;BME280;53207;51.378;-1.342;2023-04-21T08:31:16;99884.07;;;20.00;32.68
66396;BME280;53207;51.378;-1.342;2023-04-21T08:33:44;99882.54;;;19.65;32.77
66396;BME280;53207;51.378;-1.342;2023-04-21T08:36:11;99882.83;;;19.81;32.64
66396;BME280;53207;51.378;-1.342;2023-04-21T08:38:41;99874.65;;;20.36;32.58
66396;BME280;53207;51.378;-1.342;2023-04-21T08:41:09;99870.65;;;20.01;32.70
66396;BME280;53207;51.378;-1.342;2023-04-21T08:43:36;99869.98;;;20.26;32.72
66396;BME280;53207;51.378;-1.342;2023-04-21T08:46:06;99869.07;;;19.89;32.92
66396;BME280;53207;51.378;-1.342;2023-04-21T08:48:35;99868.86;;;20.01;32.79
66396;BME280;53207;51.378;-1.342;2023-04-21T08:51:03;99869.44;;;20.05;32.71
66396;BME280;53207;51.378;-1.342;2023-04-21T08:53:30;99866.70;;;20.50;32.46
66396;BME280;53207;51.378;-1.342;2023-04-21T08:55:58;99863.34;;;20.00;32.79
66396;BME280;53207;51.378;-1.342;2023-04-21T08:58:25;99863.14;;;20.11;32.64
66396;BME280;53207;51.378;-1.342;2023-04-21T09:00:52;99861.82;;;20.35;32.64
66396;BME280;53207;51.378;-1.342;2023-04-21T09:03:22;99861.48;;;19.63;32.86
66396;BME280;53207;51.378;-1.342;2023-04-21T09:05:57;99859.62;;;19.51;33.04
66396;BME280;53207;51.378;-1.342;2023-04-21T09:08:24;99861.28;;;19.70;32.75
66396;BME280;53207;51.378;-1.342;2023-04-21T09:10:51;99859.30;;;19.99;32.72
66396;BME280;53207;51.378;-1.342;2023-04-21T09:13:19;99857.11;;;19.91;32.79
66396;BME280;53207;51.378;-1.342;2023-04-21T09:15:49;99858.41;;;19.88;32.84
66396;BME280;53207;51.378;-1.342;2023-04-21T09:18:17;99853.75;;;19.80;32.90
66396;BME280;53207;51.378;-1.342;2023-04-21T09:20:47;99854.59;;;19.92;33.05
66396;BME280;53207;51.378;-1.342;2023-04-21T09:23:16;99853.27;;;19.94;32.80
66396;BME280;53207;51.378;-1.342;2023-04-21T09:25:44;99853.17;;;20.19;32.74
66396;BME280;53207;51.378;-1.342;2023-04-21T09:28:12;99854.64;;;20.17;32.76
66396;BME280;53207;51.378;-1.342;2023-04-21T09:30:41;99853.92;;;20.22;32.69
66396;BME280;53207;51.378;-1.342;2023-04-21T09:33:15;99855.94;;;19.97;32.69
66396;BME280;53207;51.378;-1.342;2023-04-21T09:35:43;99857.31;;;19.94;32.72
66396;BME280;53207;51.378;-1.342;2023-04-21T09:38:11;99858.39;;;19.84;32.83
66396;BME280;53207;51.378;-1.342;2023-04-21T09:40:38;99853.60;;;20.03;32.88
66396;BME280;53207;51.378;-1.342;2023-04-21T09:43:06;99852.95;;;19.89;32.75
66396;BME280;53207;51.378;-1.342;2023-04-21T09:45:34;99852.65;;;20.07;32.78
66396;BME280;53207;51.378;-1.342;2023-04-21T09:48:02;99852.72;;;19.76;32.86
66396;BME280;53207;51.378;-1.342;2023-04-21T09:50:32;99848.81;;;20.08;32.73
66396;BME280;53207;51.378;-1.342;2023-04-21T09:53:01;99850.17;;;19.55;33.10
66396;BME280;53207;51.378;-1.342;2023-04-21T09:55:33;99850.22;;;19.85;32.74
66396;BME280;53207;51.378;-1.342;2023-04-21T09:58:01;99846.51;;;19.91;32.94
66396;BME280;53207;51.378;-1.342;2023-04-21T10:00:32;99845.80;;;20.11;32.68
66396;BME280;53207;51.378;-1.342;2023-04-21T10:03:04;99846.28;;;20.00;32.77
66396;BME280;53207;51.378;-1.342;2023-04-21T10:05:31;99845.30;;;19.84;32.71
66396;BME280;53207;51.378;-1.342;2023-04-21T10:07:59;99845.63;;;19.97;32.82
66396;BME280;53207;51.378;-1.342;2023-04-21T10:10:28;99841.68;;;19.89;32.88
66396;BME280;53207;51.378;-1.342;2023-04-21T10:12:55;99843.42;;;19.61;32.93
66396;BME280;53207;51.378;-1.342;2023-04-21T10:15:31;99846.48;;;19.76;33.01
66396;BME280;53207;51.378;-1.342;2023-04-21T10:18:16;99846.38;;;19.88;32.91
66396;BME280;53207;51.378;-1.342;2023-04-21T10:20:53;99845.67;;;19.78;32.72
66396;BME280;53207;51.378;-1.342;2023-04-21T10:23:27;99838.24;;;19.67;32.83
66396;BME280;53207;51.378;-1.342;2023-04-21T10:26:00;99837.74;;;19.78;32.94
66396;BME280;53207;51.378;-1.342;2023-04-21T10:28:46;99838.90;;;19.81;32.86
66396;BME280;53207;51.378;-1.342;2023-04-21T10:31:20;99839.70;;;19.84;32.85
66396;BME280;53207;51.378;-1.342;2023-04-21T10:34:21;99840.70;;;19.82;32.85
66396;BME280;53207;51.378;-1.342;2023-04-21T10:37:07;99841.77;;;19.71;32.71
66396;BME280;53207;51.378;-1.342;2023-04-21T10:39:38;99839.19;;;19.86;32.77
66396;BME280;53207;51.378;-1.342;2023-04-21T10:42:28;99838.70;;;19.66;32.98
66396;BME280;53207;51.378;-1.342;2023-04-21T10:45:12;99837.15;;;19.68;32.71
66396;BME280;53207;51.378;-1.342;2023-04-21T10:47:41;99837.93;;;19.63;32.75
66396;BME280;53207;51.378;-1.342;2023-04-21T10:50:13;99838.33;;;19.51;32.84
66396;BME280;53207;51.378;-1.342;2023-04-21T10:52:43;99836.35;;;19.60;32.77
66396;BME280;53207;51.378;-1.342;2023-04-21T10:55:11;99835.23;;;19.54;32.82
66396;BME280;53207;51.378;-1.342;2023-04-21T10:57:41;99835.54;;;19.62;32.72
66396;BME280;53207;51.378;-1.342;2023-04-21T11:00:10;99830.09;;;19.77;32.78
66396;BME280;53207;51.378;-1.342;2023-04-21T11:02:37;99830.30;;;19.46;32.91
66396;BME280;53207;51.378;-1.342;2023-04-21T11:05:06;99828.42;;;19.55;32.79
66396;BME280;53207;51.378;-1.342;2023-04-21T11:07:35;99826.02;;;19.80;32.76
66396;BME280;53207;51.378;-1.342;2023-04-21T11:10:03;99826.10;;;19.57;33.03
66396;BME280;53207;51.378;-1.342;2023-04-21T11:12:32;99825.35;;;19.74;32.82
66396;BME280;53207;51.378;-1.342;2023-04-21T11:15:03;99824.46;;;19.69;32.85
66396;BME280;53207;51.378;-1.342;2023-04-21T11:17:31;99825.23;;;19.66;32.91
66396;BME280;53207;51.378;-1.342;2023-04-21T11:19:58;99825.27;;;19.65;32.89
66396;BME280;53207;51.378;-1.342;2023-04-21T11:22:27;99823.84;;;19.56;33.00
66396;BME280;53207;51.378;-1.342;2023-04-21T11:24:56;99822.34;;;19.43;33.13
66396;BME280;53207;51.378;-1.342;2023-04-21T11:27:26;99821.02;;;19.66;32.87
66396;BME280;53207;51.378;-1.342;2023-04-21T11:29:54;99822.31;;;19.69;32.81
66396;BME280;53207;51.378;-1.342;2023-04-21T11:32:21;99820.30;;;19.67;32.87
66396;BME280;53207;51.378;-1.342;2023-04-21T11:34:49;99819.35;;;19.38;32.94
66396;BME280;53207;51.378;-1.342;2023-04-21T11:37:21;99816.52;;;19.48;32.83
66396;BME280;53207;51.378;-1.342;2023-04-21T11:39:55;99814.02;;;19.64;32.90
66396;BME280;53207;51.378;-1.342;2023-04-21T11:42:22;99814.23;;;19.71;32.83
66396;BME280;53207;51.378;-1.342;2023-04-21T11:44:49;99812.66;;;19.68;32.86
66396;BME280;53207;51.378;-1.342;2023-04-21T11:47:18;99811.97;;;19.63;32.90
66396;BME280;53207;51.378;-1.342;2023-04-21T11:49:47;99808.36;;;19.78;32.78
66396;BME280;53207;51.378;-1.342;2023-04-21T11:52:24;99807.82;;;19.52;33.10
66396;BME280;53207;51.378;-1.342;2023-04-21T11:54:57;99808.15;;;19.68;32.65
66396;BME280;53207;51.378;-1.342;2023-04-21T11:57:25;99808.09;;;19.46;32.90
66396;BME280;53207;51.378;-1.342;2023-04-21T11:59:52;99806.99;;;19.78;32.82
66396;BME280;53207;51.378;-1.342;2023-04-21T12:02:23;99801.56;;;19.65;32.99
66396;BME280;53207;51.378;-1.342;2023-04-21T12:04:59;99800.49;;;19.63;32.77
66396;BME280;53207;51.378;-1.342;2023-04-21T12:07:28;99800.88;;;19.82;32.81
66396;BME280;53207;51.378;-1.342;2023-04-21T12:09:56;99800.33;;;19.94;32.63
66396;BME280;53207;51.378;-1.342;2023-04-21T12:12:23;99802.11;;;19.72;32.61
66396;BME280;53207;51.378;-1.342;2023-04-21T12:14:50;99801.75;;;19.88;32.64
66396;BME280;53207;51.378;-1.342;2023-04-21T12:17:18;99804.05;;;19.82;32.70
66396;BME280;53207;51.378;-1.342;2023-04-21T12:19:45;99803.39;;;19.76;32.75
66396;BME280;53207;51.378;-1.342;2023-04-21T12:22:13;99804.66;;;19.67;32.83
66396;BME280;53207;51.378;-1.342;2023-04-21T12:24:41;99803.65;;;19.75;32.74
66396;BME280;53207;51.378;-1.342;2023-04-21T12:27:09;99803.08;;;19.57;32.69
66396;BME280;53207;51.378;-1.342;2023-04-21T12:29:37;99806.30;;;19.60;32.67
66396;BME280;53207;51.378;-1.342;2023-04-21T12:32:05;99804.95;;;19.53;32.98
66396;BME280;53207;51.378;-1.342;2023-04-21T12:34:32;99806.91;;;19.51;33.05
66396;BME280;53207;51.378;-1.342;2023-04-21T12:37:00;99805.45;;;19.76;32.74
66396;BME280;53207;51.378;-1.342;2023-04-21T12:39:27;99807.32;;;19.65;32.90
66396;BME280;53207;51.378;-1.342;2023-04-21T12:41:54;99807.83;;;19.84;32.68
66396;BME280;53207;51.378;-1.342;2023-04-21T12:44:22;99806.55;;;19.77;32.77
66396;BME280;53207;51.378;-1.342;2023-04-21T12:46:49;99806.23;;;19.72;32.83
66396;BME280;53207;51.378;-1.342;2023-04-21T12:49:16;99804.52;;;19.57;32.76